sensor_id;sensor_type;location;lat;lon;timestamp;P1;durP1;ratioP1;P2;durP2;ratioP2
68985;SDS011;56035;37.534;-122.308;2024-03-02T00:00:21;10.02;;;1.52;;
68985;SDS011;56035;37.534;-122.308;2024-03-02T00:02:50;6.90;;;1.10;;
68985;SDS011;56035;37.534;-122.308;2024-03-02T00:05:17;8.25;;;1.23;;
68985;SDS011;56035;37.534;-122.308;2024-03-02T00:08:04;6.63;;;1.03;;
68985;SDS011;56035;37.534;-122.308;2024-03-02T00:10:37;6.87;;;1.33;;
68985;SDS011;56035;37.534;-122.308;2024-03-02T00:13:07;6.43;;;1.53;;
68985;SDS011;56035;37.534;-122.308;2024-03-02T00:16:07;5.57;;;1.07;;
68985;SDS011;56035;37.534;-122.308;2024-03-02T00:18:27;5.07;;;0.93;;
68985;SDS011;56035;37.534;-122.308;2024-03-02T00:20:56;7.03;;;1.27;;
68985;SDS011;56035;37.534;-122.308;2024-03-02T00:23:23;6.57;;;1.03;;
68985;SDS011;56035;37.534;-122.308;2024-03-02T00:25:53;11.07;;;1.33;;
68985;SDS011;56035;37.534;-122.308;2024-03-02T00:28:20;5.73;;;0.90;;
68985;SDS011;56035;37.534;-122.308;2024-03-02T00:33:31;6.00;;;0.70;;
68985;SDS011;56035;37.534;-122.308;2024-03-02T00:35:59;4.47;;;1.07;;
68985;SDS011;56035;37.534;-122.308;2024-03-02T00:38:27;4.07;;;0.70;;
68985;SDS011;56035;37.534;-122.308;2024-03-02T00:40:53;6.70;;;0.90;;
68985;SDS011;56035;37.534;-122.308;2024-03-02T00:46:11;3.23;;;0.90;;
68985;SDS011;56035;37.534;-122.308;2024-03-02T00:48:39;4.70;;;0.70;;
68985;SDS011;56035;37.534;-122.308;2024-03-02T00:51:13;4.90;;;1.00;;
68985;SDS011;56035;37.534;-122.308;2024-03-02T00:53:39;3.83;;;0.93;;
68985;SDS011;56035;37.534;-122.308;2024-03-02T00:56:07;8.35;;;1.25;;
68985;SDS011;56035;37.534;-122.308;2024-03-02T00:58:36;7.87;;;1.27;;
68985;SDS011;56035;37.534;-122.308;2024-03-02T01:01:02;8.60;;;1.30;;
68985;SDS011;56035;37.534;-122.308;2024-03-02T01:03:29;11.38;;;1.38;;
68985;SDS011;56035;37.534;-122.308;2024-03-02T01:05:57;9.27;;;1.10;;
68985;SDS011;56035;37.534;-122.308;2024-03-02T01:08:24;9.35;;;1.23;;
68985;SDS011;56035;37.534;-122.308;2024-03-02T01:10:51;6.97;;;1.10;;
68985;SDS011;56035;37.534;-122.308;2024-03-02T01:13:18;11.73;;;2.00;;
68985;SDS011;56035;37.534;-122.308;2024-03-02T01:15:44;11.90;;;1.30;;
68985;SDS011;56035;37.534;-122.308;2024-03-02T01:18:10;7.70;;;1.63;;
68985;SDS011;56035;37.534;-122.308;2024-03-02T01:20:37;5.65;;;1.10;;
68985;SDS011;56035;37.534;-122.308;2024-03-02T01:23:03;8.88;;;1.33;;
68985;SDS011;56035;37.534;-122.308;2024-03-02T01:25:30;6.43;;;0.98;;
68985;SDS011;56035;37.534;-122.308;2024-03-02T01:27:56;8.70;;;1.38;;
68985;SDS011;56035;37.534;-122.308;2024-03-02T01:30:23;6.82;;;1.05;;
68985;SDS011;56035;37.534;-122.308;2024-03-02T01:32:49;7.47;;;1.50;;
68985;SDS011;56035;37.534;-122.308;2024-03-02T01:35:16;10.75;;;1.58;;
68985;SDS011;56035;37.534;-122.308;2024-03-02T01:37:42;5.13;;;1.23;;
68985;SDS011;56035;37.534;-122.308;2024-03-02T01:40:09;10.65;;;1.95;;
68985;SDS011;56035;37.534;-122.308;2024-03-02T01:42:36;13.40;;;2.10;;
68985;SDS011;56035;37.534;-122.308;2024-03-02T01:45:06;10.43;;;1.70;;
68985;SDS011;56035;37.534;-122.308;2024-03-02T01:47:33;5.53;;;1.23;;
68985;SDS011;56035;37.534;-122.308;2024-03-02T01:49:59;8.63;;;1.50;;
68985;SDS011;56035;37.534;-122.308;2024-03-02T01:52:27;9.77;;;1.73;;
68985;SDS011;56035;37.534;-122.308;2024-03-02T01:57:19;11.00;;;1.63;;
68985;SDS011;56035;37.534;-122.308;2024-03-02T01:59:46;9.55;;;1.90;;
68985;SDS011;56035;37.534;-122.308;2024-03-02T02:02:14;9.77;;;1.53;;
68985;SDS011;56035;37.534;-122.308;2024-03-02T02:04:40;8.77;;;1.00;;
68985;SDS011;56035;37.534;-122.308;2024-03-02T02:07:07;6.38;;;1.77;;
68985;SDS011;56035;37.534;-122.308;2024-03-02T02:09:33;7.47;;;1.30;;
68985;SDS011;56035;37.534;-122.308;2024-03-02T02:11:59;9.70;;;1.50;;
68985;SDS011;56035;37.534;-122.308;2024-03-02T02:14:26;11.82;;;2.00;;
68985;SDS011;56035;37.534;-122.308;2024-03-02T02:16:52;12.27;;;2.28;;
68985;SDS011;56035;37.534;-122.308;2024-03-02T02:19:19;13.77;;;2.42;;
68985;SDS011;56035;37.534;-122.308;2024-03-02T02:21:45;8.80;;;1.20;;
68985;SDS011;56035;37.534;-122.308;2024-03-02T02:24:12;8.27;;;1.25;;
68985;SDS011;56035;37.534;-122.308;2024-03-02T02:26:38;5.00;;;0.93;;
68985;SDS011;56035;37.534;-122.308;2024-03-02T02:29:05;5.80;;;1.30;;
68985;SDS011;56035;37.534;-122.308;2024-03-02T02:31:38;8.93;;;1.45;;
68985;SDS011;56035;37.534;-122.308;2024-03-02T02:34:05;10.10;;;1.20;;
68985;SDS011;56035;37.534;-122.308;2024-03-02T02:36:34;10.40;;;1.35;;
68985;SDS011;56035;37.534;-122.308;2024-03-02T02:39:02;8.80;;;1.50;;
68985;SDS011;56035;37.534;-122.308;2024-03-02T02:41:30;13.10;;;1.97;;
68985;SDS011;56035;37.534;-122.308;2024-03-02T02:43:56;8.30;;;1.55;;
68985;SDS011;56035;37.534;-122.308;2024-03-02T02:46:23;13.18;;;2.10;;
68985;SDS011;56035;37.534;-122.308;2024-03-02T02:48:49;14.07;;;2.40;;
68985;SDS011;56035;37.534;-122.308;2024-03-02T02:51:18;11.93;;;1.70;;
68985;SDS011;56035;37.534;-122.308;2024-03-02T02:53:45;8.23;;;1.48;;
68985;SDS011;56035;37.534;-122.308;2024-03-02T02:56:11;10.20;;;1.38;;
68985;SDS011;56035;37.534;-122.308;2024-03-02T02:58:37;13.32;;;2.10;;
68985;SDS011;56035;37.534;-122.308;2024-03-02T03:01:06;10.03;;;1.70;;
68985;SDS011;56035;37.534;-122.308;2024-03-02T03:03:33;11.00;;;1.60;;
68985;SDS011;56035;37.534;-122.308;2024-03-02T03:05:59;15.52;;;1.95;;
68985;SDS011;56035;37.534;-122.308;2024-03-02T03:08:26;12.32;;;2.05;;
68985;SDS011;56035;37.534;-122.308;2024-03-02T03:10:52;15.40;;;2.65;;
68985;SDS011;56035;37.534;-122.308;2024-03-02T03:13:19;13.90;;;1.77;;
68985;SDS011;56035;37.534;-122.308;2024-03-02T03:15:45;11.02;;;1.30;;
68985;SDS011;56035;37.534;-122.308;2024-03-02T03:18:11;15.55;;;2.35;;
68985;SDS011;56035;37.534;-122.308;2024-03-02T03:20:38;13.93;;;2.00;;
68985;SDS011;56035;37.534;-122.308;2024-03-02T03:23:04;13.40;;;1.58;;
68985;SDS011;56035;37.534;-122.308;2024-03-02T03:25:31;11.00;;;1.60;;
68985;SDS011;56035;37.534;-122.308;2024-03-02T03:27:57;10.90;;;1.80;;
68985;SDS011;56035;37.534;-122.308;2024-03-02T03:30:23;12.50;;;1.90;;
68985;SDS011;56035;37.534;-122.308;2024-03-02T03:32:50;7.28;;;1.73;;
68985;SDS011;56035;37.534;-122.308;2024-03-02T03:35:16;12.95;;;1.63;;
68985;SDS011;56035;37.534;-122.308;2024-03-02T03:37:43;8.27;;;1.57;;
68985;SDS011;56035;37.534;-122.308;2024-03-02T03:40:10;9.48;;;1.63;;
68985;SDS011;56035;37.534;-122.308;2024-03-02T03:42:37;11.55;;;1.40;;
68985;SDS011;56035;37.534;-122.308;2024-03-02T03:45:04;13.43;;;2.47;;
68985;SDS011;56035;37.534;-122.308;2024-03-02T03:47:32;10.47;;;2.30;;
68985;SDS011;56035;37.534;-122.308;2024-03-02T03:49:58;11.50;;;2.08;;
68985;SDS011;56035;37.534;-122.308;2024-03-02T03:52:25;11.13;;;2.10;;
68985;SDS011;56035;37.534;-122.308;2024-03-02T03:54:51;10.55;;;1.90;;
68985;SDS011;56035;37.534;-122.308;2024-03-02T03:57:18;13.65;;;2.63;;
68985;SDS011;56035;37.534;-122.308;2024-03-02T03:59:44;11.88;;;2.85;;
68985;SDS011;56035;37.534;-122.308;2024-03-02T04:02:12;13.37;;;1.80;;
68985;SDS011;56035;37.534;-122.308;2024-03-02T04:04:38;10.52;;;2.05;;
68985;SDS011;56035;37.534;-122.308;2024-03-02T04:07:04;17.17;;;2.17;;
68985;SDS011;56035;37.534;-122.308;2024-03-02T04:09:31;12.02;;;3.00;;
68985;SDS011;56035;37.534;-122.308;2024-03-02T04:11:58;11.80;;;1.77;;
68985;SDS011;56035;37.534;-122.308;2024-03-02T04:14:24;13.32;;;1.98;;
68985;SDS011;56035;37.534;-122.308;2024-03-02T04:16:50;15.00;;;1.45;;
68985;SDS011;56035;37.534;-122.308;2024-03-02T04:19:17;9.23;;;1.58;;
68985;SDS011;56035;37.534;-122.308;2024-03-02T04:21:43;12.25;;;2.60;;
68985;SDS011;56035;37.534;-122.308;2024-03-02T04:24:10;12.15;;;2.00;;
68985;SDS011;56035;37.534;-122.308;2024-03-02T04:26:36;12.40;;;2.17;;
68985;SDS011;56035;37.534;-122.308;2024-03-02T04:29:03;13.10;;;3.05;;
68985;SDS011;56035;37.534;-122.308;2024-03-02T04:31:29;16.52;;;3.30;;
68985;SDS011;56035;37.534;-122.308;2024-03-02T04:33:56;14.23;;;2.30;;
68985;SDS011;56035;37.534;-122.308;2024-03-02T04:36:22;12.52;;;1.80;;
68985;SDS011;56035;37.534;-122.308;2024-03-02T04:38:49;9.52;;;1.50;;
68985;SDS011;56035;37.534;-122.308;2024-03-02T04:41:15;15.07;;;2.22;;
68985;SDS011;56035;37.534;-122.308;2024-03-02T04:46:08;15.73;;;2.20;;
68985;SDS011;56035;37.534;-122.308;2024-03-02T04:48:34;16.88;;;2.80;;
68985;SDS011;56035;37.534;-122.308;2024-03-02T04:51:01;16.58;;;3.10;;
68985;SDS011;56035;37.534;-122.308;2024-03-02T04:53:27;15.73;;;2.00;;
68985;SDS011;56035;37.534;-122.308;2024-03-02T04:55:54;16.23;;;2.63;;
68985;SDS011;56035;37.534;-122.308;2024-03-02T04:58:20;18.92;;;2.55;;
68985;SDS011;56035;37.534;-122.308;2024-03-02T05:00:46;14.25;;;2.35;;
68985;SDS011;56035;37.534;-122.308;2024-03-02T05:03:13;14.63;;;2.50;;
68985;SDS011;56035;37.534;-122.308;2024-03-02T05:05:39;19.15;;;3.10;;
68985;SDS011;56035;37.534;-122.308;2024-03-02T05:08:06;17.35;;;3.00;;
68985;SDS011;56035;37.534;-122.308;2024-03-02T05:10:32;26.73;;;3.78;;
68985;SDS011;56035;37.534;-122.308;2024-03-02T05:12:59;14.32;;;2.55;;
68985;SDS011;56035;37.534;-122.308;2024-03-02T05:15:25;10.32;;;2.05;;
68985;SDS011;56035;37.534;-122.308;2024-03-02T05:17:52;8.50;;;1.30;;
68985;SDS011;56035;37.534;-122.308;2024-03-02T05:20:18;11.15;;;1.88;;
68985;SDS011;56035;37.534;-122.308;2024-03-02T05:22:45;14.25;;;2.30;;
68985;SDS011;56035;37.534;-122.308;2024-03-02T05:25:12;8.80;;;1.30;;
68985;SDS011;56035;37.534;-122.308;2024-03-02T05:27:38;12.30;;;2.38;;
68985;SDS011;56035;37.534;-122.308;2024-03-02T05:30:05;10.13;;;1.48;;
68985;SDS011;56035;37.534;-122.308;2024-03-02T05:34:58;21.10;;;1.90;;
68985;SDS011;56035;37.534;-122.308;2024-03-02T05:37:25;19.20;;;2.33;;
68985;SDS011;56035;37.534;-122.308;2024-03-02T05:39:51;27.25;;;3.88;;
68985;SDS011;56035;37.534;-122.308;2024-03-02T05:42:18;11.67;;;1.90;;
68985;SDS011;56035;37.534;-122.308;2024-03-02T05:44:45;8.90;;;1.38;;
68985;SDS011;56035;37.534;-122.308;2024-03-02T05:47:11;11.50;;;1.52;;
68985;SDS011;56035;37.534;-122.308;2024-03-02T05:49:38;12.48;;;1.55;;
68985;SDS011;56035;37.534;-122.308;2024-03-02T05:52:04;12.23;;;1.33;;
68985;SDS011;56035;37.534;-122.308;2024-03-02T05:54:32;15.40;;;1.80;;
68985;SDS011;56035;37.534;-122.308;2024-03-02T05:56:58;19.98;;;2.85;;
68985;SDS011;56035;37.534;-122.308;2024-03-02T05:59:42;18.33;;;2.33;;
68985;SDS011;56035;37.534;-122.308;2024-03-02T06:02:11;19.33;;;1.80;;
68985;SDS011;56035;37.534;-122.308;2024-03-02T06:04:37;25.10;;;2.88;;
68985;SDS011;56035;37.534;-122.308;2024-03-02T06:07:04;18.55;;;2.60;;
68985;SDS011;56035;37.534;-122.308;2024-03-02T06:09:30;16.35;;;2.05;;
68985;SDS011;56035;37.534;-122.308;2024-03-02T06:11:57;16.70;;;2.13;;
68985;SDS011;56035;37.534;-122.308;2024-03-02T06:14:23;25.33;;;3.25;;
68985;SDS011;56035;37.534;-122.308;2024-03-02T06:16:49;32.75;;;3.40;;
68985;SDS011;56035;37.534;-122.308;2024-03-02T06:19:16;26.42;;;3.35;;
68985;SDS011;56035;37.534;-122.308;2024-03-02T06:24:09;28.20;;;3.83;;
68985;SDS011;56035;37.534;-122.308;2024-03-02T06:26:36;26.00;;;3.30;;
68985;SDS011;56035;37.534;-122.308;2024-03-02T06:29:02;35.05;;;4.05;;
68985;SDS011;56035;37.534;-122.308;2024-03-02T06:31:29;32.08;;;3.83;;
68985;SDS011;56035;37.534;-122.308;2024-03-02T06:33:55;29.48;;;4.60;;
68985;SDS011;56035;37.534;-122.308;2024-03-02T06:36:21;33.55;;;4.43;;
68985;SDS011;56035;37.534;-122.308;2024-03-02T06:38:48;33.08;;;3.97;;
68985;SDS011;56035;37.534;-122.308;2024-03-02T06:41:15;37.47;;;4.90;;
68985;SDS011;56035;37.534;-122.308;2024-03-02T06:43:41;36.28;;;3.55;;
68985;SDS011;56035;37.534;-122.308;2024-03-02T06:46:07;36.20;;;4.47;;
68985;SDS011;56035;37.534;-122.308;2024-03-02T06:51:00;30.73;;;4.30;;
68985;SDS011;56035;37.534;-122.308;2024-03-02T06:53:27;29.52;;;3.75;;
68985;SDS011;56035;37.534;-122.308;2024-03-02T06:55:53;30.65;;;3.88;;
68985;SDS011;56035;37.534;-122.308;2024-03-02T06:58:20;29.85;;;3.20;;
68985;SDS011;56035;37.534;-122.308;2024-03-02T07:00:46;30.27;;;3.80;;
68985;SDS011;56035;37.534;-122.308;2024-03-02T07:05:39;28.30;;;4.50;;
68985;SDS011;56035;37.534;-122.308;2024-03-02T07:08:06;24.02;;;3.65;;
68985;SDS011;56035;37.534;-122.308;2024-03-02T07:10:32;26.35;;;3.08;;
68985;SDS011;56035;37.534;-122.308;2024-03-02T07:12:58;28.83;;;3.45;;
68985;SDS011;56035;37.534;-122.308;2024-03-02T07:15:25;34.60;;;4.60;;
68985;SDS011;56035;37.534;-122.308;2024-03-02T07:18:10;24.90;;;3.30;;
68985;SDS011;56035;37.534;-122.308;2024-03-02T07:20:36;27.23;;;3.97;;
68985;SDS011;56035;37.534;-122.308;2024-03-02T07:23:04;22.47;;;3.20;;
68985;SDS011;56035;37.534;-122.308;2024-03-02T07:27:57;17.40;;;2.50;;
68985;SDS011;56035;37.534;-122.308;2024-03-02T07:30:23;20.20;;;2.60;;
68985;SDS011;56035;37.534;-122.308;2024-03-02T07:32:50;18.40;;;2.60;;
68985;SDS011;56035;37.534;-122.308;2024-03-02T07:35:16;22.75;;;2.83;;
68985;SDS011;56035;37.534;-122.308;2024-03-02T07:37:43;25.92;;;2.92;;
68985;SDS011;56035;37.534;-122.308;2024-03-02T07:40:10;21.60;;;3.25;;
68985;SDS011;56035;37.534;-122.308;2024-03-02T07:45:04;27.55;;;4.10;;
68985;SDS011;56035;37.534;-122.308;2024-03-02T07:47:32;24.40;;;2.97;;
68985;SDS011;56035;37.534;-122.308;2024-03-02T07:50:00;28.90;;;3.40;;
68985;SDS011;56035;37.534;-122.308;2024-03-02T07:52:26;23.98;;;3.47;;
68985;SDS011;56035;37.534;-122.308;2024-03-02T07:54:53;25.15;;;3.42;;
68985;SDS011;56035;37.534;-122.308;2024-03-02T07:57:19;25.52;;;2.97;;
68985;SDS011;56035;37.534;-122.308;2024-03-02T07:59:46;24.13;;;3.45;;
68985;SDS011;56035;37.534;-122.308;2024-03-02T08:02:12;34.35;;;4.20;;
68985;SDS011;56035;37.534;-122.308;2024-03-02T08:04:39;23.45;;;2.83;;
68985;SDS011;56035;37.534;-122.308;2024-03-02T08:07:05;11.65;;;2.55;;
68985;SDS011;56035;37.534;-122.308;2024-03-02T08:09:32;8.20;;;1.48;;
68985;SDS011;56035;37.534;-122.308;2024-03-02T08:11:58;10.07;;;1.15;;
68985;SDS011;56035;37.534;-122.308;2024-03-02T08:14:25;8.25;;;0.98;;
68985;SDS011;56035;37.534;-122.308;2024-03-02T08:16:51;9.85;;;1.55;;
68985;SDS011;56035;37.534;-122.308;2024-03-02T08:19:17;5.60;;;1.00;;
68985;SDS011;56035;37.534;-122.308;2024-03-02T08:21:44;6.80;;;0.73;;
68985;SDS011;56035;37.534;-122.308;2024-03-02T08:24:10;10.13;;;1.40;;
68985;SDS011;56035;37.534;-122.308;2024-03-02T08:26:37;9.98;;;1.27;;
68985;SDS011;56035;37.534;-122.308;2024-03-02T08:29:03;10.63;;;1.58;;
68985;SDS011;56035;37.534;-122.308;2024-03-02T08:31:30;8.43;;;1.50;;
68985;SDS011;56035;37.534;-122.308;2024-03-02T08:33:56;9.13;;;0.95;;
68985;SDS011;56035;37.534;-122.308;2024-03-02T08:36:24;6.90;;;0.90;;
68985;SDS011;56035;37.534;-122.308;2024-03-02T08:38:50;6.72;;;1.13;;
68985;SDS011;56035;37.534;-122.308;2024-03-02T08:41:16;10.38;;;1.67;;
68985;SDS011;56035;37.534;-122.308;2024-03-02T08:43:43;7.85;;;1.70;;
68985;SDS011;56035;37.534;-122.308;2024-03-02T08:46:10;11.55;;;1.83;;
68985;SDS011;56035;37.534;-122.308;2024-03-02T08:48:36;9.85;;;1.48;;
68985;SDS011;56035;37.534;-122.308;2024-03-02T08:51:02;11.68;;;1.98;;
68985;SDS011;56035;37.534;-122.308;2024-03-02T08:53:33;16.63;;;1.50;;
68985;SDS011;56035;37.534;-122.308;2024-03-02T08:55:59;14.35;;;1.67;;
68985;SDS011;56035;37.534;-122.308;2024-03-02T08:58:25;9.70;;;1.58;;
68985;SDS011;56035;37.534;-122.308;2024-03-02T09:00:52;10.32;;;1.52;;
68985;SDS011;56035;37.534;-122.308;2024-03-02T09:03:18;20.40;;;2.83;;
68985;SDS011;56035;37.534;-122.308;2024-03-02T09:05:45;12.05;;;1.45;;
68985;SDS011;56035;37.534;-122.308;2024-03-02T09:08:11;10.50;;;1.42;;
68985;SDS011;56035;37.534;-122.308;2024-03-02T09:10:37;15.23;;;1.70;;
68985;SDS011;56035;37.534;-122.308;2024-03-02T09:13:05;18.20;;;2.30;;
68985;SDS011;56035;37.534;-122.308;2024-03-02T09:15:31;12.10;;;1.58;;
68985;SDS011;56035;37.534;-122.308;2024-03-02T09:17:58;11.27;;;1.55;;
68985;SDS011;56035;37.534;-122.308;2024-03-02T09:20:24;14.25;;;1.83;;
68985;SDS011;56035;37.534;-122.308;2024-03-02T09:22:51;3.25;;;0.55;;
68985;SDS011;56035;37.534;-122.308;2024-03-02T09:25:17;5.97;;;0.90;;
68985;SDS011;56035;37.534;-122.308;2024-03-02T09:27:43;8.75;;;1.05;;
68985;SDS011;56035;37.534;-122.308;2024-03-02T09:30:10;6.07;;;1.15;;
68985;SDS011;56035;37.534;-122.308;2024-03-02T09:32:38;6.37;;;1.10;;
68985;SDS011;56035;37.534;-122.308;2024-03-02T09:35:05;7.38;;;1.00;;
68985;SDS011;56035;37.534;-122.308;2024-03-02T09:37:31;11.95;;;1.20;;
68985;SDS011;56035;37.534;-122.308;2024-03-02T09:39:58;13.90;;;1.67;;
68985;SDS011;56035;37.534;-122.308;2024-03-02T09:42:24;8.98;;;1.20;;
68985;SDS011;56035;37.534;-122.308;2024-03-02T09:44:51;13.80;;;2.33;;
68985;SDS011;56035;37.534;-122.308;2024-03-02T09:47:18;17.53;;;1.77;;
68985;SDS011;56035;37.534;-122.308;2024-03-02T09:49:44;11.63;;;2.00;;
68985;SDS011;56035;37.534;-122.308;2024-03-02T09:52:11;8.73;;;1.00;;
68985;SDS011;56035;37.534;-122.308;2024-03-02T09:54:39;11.07;;;1.40;;
68985;SDS011;56035;37.534;-122.308;2024-03-02T09:57:06;14.32;;;1.55;;
68985;SDS011;56035;37.534;-122.308;2024-03-02T09:59:32;15.95;;;1.92;;
68985;SDS011;56035;37.534;-122.308;2024-03-02T10:01:59;16.05;;;1.92;;
68985;SDS011;56035;37.534;-122.308;2024-03-02T10:04:26;17.50;;;2.23;;
68985;SDS011;56035;37.534;-122.308;2024-03-02T10:09:37;19.27;;;3.30;;
68985;SDS011;56035;37.534;-122.308;2024-03-02T10:12:04;13.27;;;2.55;;
68985;SDS011;56035;37.534;-122.308;2024-03-02T10:14:31;15.10;;;2.27;;
68985;SDS011;56035;37.534;-122.308;2024-03-02T10:17:08;13.23;;;1.92;;
68985;SDS011;56035;37.534;-122.308;2024-03-02T10:19:36;9.80;;;1.30;;
68985;SDS011;56035;37.534;-122.308;2024-03-02T10:22:04;9.00;;;1.10;;
68985;SDS011;56035;37.534;-122.308;2024-03-02T10:24:44;9.97;;;1.20;;
68985;SDS011;56035;37.534;-122.308;2024-03-02T10:27:31;10.10;;;1.20;;
68985;SDS011;56035;37.534;-122.308;2024-03-02T10:29:57;15.17;;;1.43;;
68985;SDS011;56035;37.534;-122.308;2024-03-02T10:32:24;9.38;;;1.13;;
68985;SDS011;56035;37.534;-122.308;2024-03-02T10:34:50;12.48;;;1.25;;
68985;SDS011;56035;37.534;-122.308;2024-03-02T10:37:16;14.45;;;1.48;;
68985;SDS011;56035;37.534;-122.308;2024-03-02T10:39:43;14.73;;;1.90;;
68985;SDS011;56035;37.534;-122.308;2024-03-02T10:42:12;12.57;;;1.70;;
68985;SDS011;56035;37.534;-122.308;2024-03-02T10:44:38;9.45;;;1.60;;
68985;SDS011;56035;37.534;-122.308;2024-03-02T10:47:05;13.15;;;2.08;;
68985;SDS011;56035;37.534;-122.308;2024-03-02T10:49:32;9.43;;;1.60;;
68985;SDS011;56035;37.534;-122.308;2024-03-02T10:51:58;15.43;;;2.92;;
68985;SDS011;56035;37.534;-122.308;2024-03-02T10:56:55;13.83;;;1.70;;
68985;SDS011;56035;37.534;-122.308;2024-03-02T10:59:35;11.27;;;1.40;;
68985;SDS011;56035;37.534;-122.308;2024-03-02T11:02:04;11.00;;;1.47;;
68985;SDS011;56035;37.534;-122.308;2024-03-02T11:04:34;13.20;;;1.70;;
68985;SDS011;56035;37.534;-122.308;2024-03-02T11:09:32;12.00;;;1.47;;
68985;SDS011;56035;37.534;-122.308;2024-03-02T11:12:09;10.10;;;1.37;;
68985;SDS011;56035;37.534;-122.308;2024-03-02T11:14:40;14.90;;;1.70;;
68985;SDS011;56035;37.534;-122.308;2024-03-02T11:17:10;10.53;;;1.47;;
68985;SDS011;56035;37.534;-122.308;2024-03-02T11:19:41;12.47;;;1.40;;
68985;SDS011;56035;37.534;-122.308;2024-03-02T11:22:08;7.45;;;1.40;;
68985;SDS011;56035;37.534;-122.308;2024-03-02T11:24:34;8.93;;;1.40;;
68985;SDS011;56035;37.534;-122.308;2024-03-02T11:27:02;12.63;;;1.63;;
68985;SDS011;56035;37.534;-122.308;2024-03-02T11:32:14;12.57;;;1.10;;
68985;SDS011;56035;37.534;-122.308;2024-03-02T11:34:47;11.37;;;1.37;;
68985;SDS011;56035;37.534;-122.308;2024-03-02T11:37:15;10.53;;;1.97;;
68985;SDS011;56035;37.534;-122.308;2024-03-02T11:39:45;9.03;;;1.00;;
68985;SDS011;56035;37.534;-122.308;2024-03-02T11:42:12;8.20;;;1.30;;
68985;SDS011;56035;37.534;-122.308;2024-03-02T11:44:43;10.73;;;1.33;;
68985;SDS011;56035;37.534;-122.308;2024-03-02T11:47:16;11.87;;;1.30;;
68985;SDS011;56035;37.534;-122.308;2024-03-02T11:50:01;18.92;;;1.90;;
68985;SDS011;56035;37.534;-122.308;2024-03-02T11:52:32;17.07;;;1.70;;
68985;SDS011;56035;37.534;-122.308;2024-03-02T11:54:59;12.73;;;1.67;;
68985;SDS011;56035;37.534;-122.308;2024-03-02T11:57:26;11.00;;;1.60;;
68985;SDS011;56035;37.534;-122.308;2024-03-02T11:59:56;17.53;;;1.77;;
68985;SDS011;56035;37.534;-122.308;2024-03-02T12:02:24;12.10;;;2.33;;
68985;SDS011;56035;37.534;-122.308;2024-03-02T12:04:51;13.35;;;1.60;;
68985;SDS011;56035;37.534;-122.308;2024-03-02T12:07:20;14.52;;;1.80;;
68985;SDS011;56035;37.534;-122.308;2024-03-02T12:09:49;12.83;;;1.83;;
68985;SDS011;56035;37.534;-122.308;2024-03-02T12:12:28;7.03;;;1.40;;
68985;SDS011;56035;37.534;-122.308;2024-03-02T12:14:54;10.32;;;2.08;;
68985;SDS011;56035;37.534;-122.308;2024-03-02T12:17:21;15.88;;;1.92;;
68985;SDS011;56035;37.534;-122.308;2024-03-02T12:22:14;15.33;;;1.50;;
68985;SDS011;56035;37.534;-122.308;2024-03-02T12:24:41;9.60;;;1.27;;
68985;SDS011;56035;37.534;-122.308;2024-03-02T12:27:10;11.63;;;1.20;;
68985;SDS011;56035;37.534;-122.308;2024-03-02T12:29:37;16.43;;;2.13;;
68985;SDS011;56035;37.534;-122.308;2024-03-02T12:32:04;13.10;;;2.03;;
68985;SDS011;56035;37.534;-122.308;2024-03-02T12:36:57;15.27;;;1.83;;
68985;SDS011;56035;37.534;-122.308;2024-03-02T12:39:23;11.82;;;1.50;;
68985;SDS011;56035;37.534;-122.308;2024-03-02T12:41:50;12.77;;;1.92;;
68985;SDS011;56035;37.534;-122.308;2024-03-02T12:44:19;11.23;;;2.20;;
68985;SDS011;56035;37.534;-122.308;2024-03-02T12:46:46;9.02;;;1.20;;
68985;SDS011;56035;37.534;-122.308;2024-03-02T12:49:13;14.83;;;2.27;;
68985;SDS011;56035;37.534;-122.308;2024-03-02T12:51:45;10.70;;;1.80;;
68985;SDS011;56035;37.534;-122.308;2024-03-02T12:54:16;16.70;;;2.63;;
68985;SDS011;56035;37.534;-122.308;2024-03-02T12:56:43;11.48;;;1.50;;
68985;SDS011;56035;37.534;-122.308;2024-03-02T12:59:21;12.40;;;2.00;;
68985;SDS011;56035;37.534;-122.308;2024-03-02T13:01:55;10.63;;;1.60;;
68985;SDS011;56035;37.534;-122.308;2024-03-02T13:04:24;13.47;;;1.47;;
68985;SDS011;56035;37.534;-122.308;2024-03-02T13:06:52;15.60;;;1.90;;
68985;SDS011;56035;37.534;-122.308;2024-03-02T13:09:18;11.83;;;1.77;;
68985;SDS011;56035;37.534;-122.308;2024-03-02T13:11:45;10.43;;;1.93;;
68985;SDS011;56035;37.534;-122.308;2024-03-02T13:14:12;10.75;;;1.67;;
68985;SDS011;56035;37.534;-122.308;2024-03-02T13:16:39;9.75;;;1.67;;
68985;SDS011;56035;37.534;-122.308;2024-03-02T13:19:09;18.75;;;2.10;;
68985;SDS011;56035;37.534;-122.308;2024-03-02T13:21:38;11.17;;;1.70;;
68985;SDS011;56035;37.534;-122.308;2024-03-02T13:24:04;7.63;;;0.90;;
68985;SDS011;56035;37.534;-122.308;2024-03-02T13:28:57;10.63;;;1.70;;
68985;SDS011;56035;37.534;-122.308;2024-03-02T13:31:24;16.88;;;2.40;;
68985;SDS011;56035;37.534;-122.308;2024-03-02T13:33:50;11.00;;;1.70;;
68985;SDS011;56035;37.534;-122.308;2024-03-02T13:36:16;12.52;;;2.10;;
68985;SDS011;56035;37.534;-122.308;2024-03-02T13:38:44;12.10;;;1.83;;
68985;SDS011;56035;37.534;-122.308;2024-03-02T13:41:11;19.13;;;1.92;;
68985;SDS011;56035;37.534;-122.308;2024-03-02T13:43:37;17.75;;;2.05;;
68985;SDS011;56035;37.534;-122.308;2024-03-02T13:46:04;13.57;;;1.93;;
68985;SDS011;56035;37.534;-122.308;2024-03-02T13:48:31;9.63;;;1.73;;
68985;SDS011;56035;37.534;-122.308;2024-03-02T13:50:58;15.73;;;2.08;;
68985;SDS011;56035;37.534;-122.308;2024-03-02T13:53:24;14.43;;;2.03;;
68985;SDS011;56035;37.534;-122.308;2024-03-02T13:55:51;13.07;;;1.58;;
68985;SDS011;56035;37.534;-122.308;2024-03-02T13:58:17;10.32;;;2.13;;
68985;SDS011;56035;37.534;-122.308;2024-03-02T14:00:45;10.97;;;1.60;;
68985;SDS011;56035;37.534;-122.308;2024-03-02T14:03:12;13.70;;;2.05;;
68985;SDS011;56035;37.534;-122.308;2024-03-02T14:05:38;14.05;;;1.40;;
68985;SDS011;56035;37.534;-122.308;2024-03-02T14:08:05;7.57;;;1.17;;
68985;SDS011;56035;37.534;-122.308;2024-03-02T14:10:31;13.10;;;1.80;;
68985;SDS011;56035;37.534;-122.308;2024-03-02T14:12:58;13.43;;;1.90;;
68985;SDS011;56035;37.534;-122.308;2024-03-02T14:15:24;13.45;;;1.52;;
68985;SDS011;56035;37.534;-122.308;2024-03-02T14:17:50;17.65;;;1.80;;
68985;SDS011;56035;37.534;-122.308;2024-03-02T14:20:17;11.20;;;2.35;;
68985;SDS011;56035;37.534;-122.308;2024-03-02T14:22:47;11.13;;;1.80;;
68985;SDS011;56035;37.534;-122.308;2024-03-02T14:25:14;13.83;;;1.80;;
68985;SDS011;56035;37.534;-122.308;2024-03-02T14:27:41;8.60;;;1.80;;
68985;SDS011;56035;37.534;-122.308;2024-03-02T14:30:08;11.73;;;1.80;;
68985;SDS011;56035;37.534;-122.308;2024-03-02T14:32:35;9.95;;;1.48;;
68985;SDS011;56035;37.534;-122.308;2024-03-02T14:35:01;8.55;;;1.60;;
68985;SDS011;56035;37.534;-122.308;2024-03-02T14:37:27;13.20;;;2.00;;
68985;SDS011;56035;37.534;-122.308;2024-03-02T14:39:54;13.80;;;1.60;;
68985;SDS011;56035;37.534;-122.308;2024-03-02T14:42:20;7.38;;;1.10;;
68985;SDS011;56035;37.534;-122.308;2024-03-02T14:44:47;10.13;;;1.27;;